Terminal Aerodrome Forecast
Issued by NWS Melbourne, FL

Home | Current Version | Previous Version | Text Only | Print | Product List | Glossary On
Versions: 1 2 3 4 5 6 7 8 9 10 11 12 13
000
FTUS42 KMLB 302300
TAFMLB
TAF
KMLB 302322Z 3100/3124 12006KT P6SM FEW020 FEW250
     FM310400 VRB03KT P6SM SCT250
     FM311400 11006KT P6SM FEW020 SCT250=

USA.gov is the U.S. government's official web portal to all federal, state and local government web resources and services.